createdAt,value
2019-03-05T00:01:54.302Z,7.60
2019-03-05T00:04:22.728Z,7.30
2019-03-05T00:06:51.144Z,7.78
2019-03-05T00:09:21.039Z,7.70
2019-03-05T00:11:49.474Z,8.30
2019-03-05T00:14:18.841Z,8.10
2019-03-05T00:16:47.524Z,8.23
2019-03-05T00:19:15.950Z,8.85
2019-03-05T00:21:44.373Z,8.18
2019-03-05T00:24:49.301Z,8.73
2019-03-05T00:27:17.743Z,8.40
2019-03-05T00:30:04.154Z,8.93
2019-03-05T00:32:32.928Z,9.48
2019-03-05T00:35:13.205Z,9.50
2019-03-05T00:37:44.753Z,8.90
2019-03-05T00:40:32.483Z,9.10
2019-03-05T00:43:03.548Z,9.53
2019-03-05T00:45:43.806Z,9.00
2019-03-05T00:48:48.630Z,8.48
2019-03-05T00:51:47.246Z,9.08
2019-03-05T00:54:30.546Z,8.00
2019-03-05T00:57:02.869Z,8.95
2019-03-05T00:59:55.113Z,8.30
2019-03-05T01:02:44.042Z,7.70
2019-03-05T01:05:27.346Z,7.95
2019-03-05T01:07:56.331Z,7.97
2019-03-05T01:10:26.122Z,7.20
2019-03-05T01:12:54.793Z,8.20
2019-03-05T01:15:23.220Z,7.50
2019-03-05T01:17:51.645Z,7.70
2019-03-05T01:20:20.145Z,7.80
2019-03-05T01:22:48.567Z,7.65
2019-03-05T01:25:36.276Z,8.08
2019-03-05T01:28:05.250Z,7.40
2019-03-05T01:31:02.476Z,7.67
2019-03-05T01:33:44.817Z,7.80
2019-03-05T01:36:23.768Z,8.00
2019-03-05T01:38:59.304Z,7.42
2019-03-05T01:41:27.720Z,7.97
2019-03-05T01:43:56.150Z,7.80
2019-03-05T01:46:24.569Z,8.53
2019-03-05T01:48:53.001Z,7.62
2019-03-05T01:51:21.424Z,8.10
2019-03-05T01:53:49.849Z,7.70
2019-03-05T01:56:18.268Z,7.75
2019-03-05T01:58:47.037Z,8.00
2019-03-05T02:01:15.452Z,7.85
2019-03-05T02:03:43.954Z,6.85
2019-03-05T02:06:12.388Z,7.37
2019-03-05T02:08:40.844Z,7.05
2019-03-05T02:11:09.682Z,6.85
2019-03-05T02:13:38.129Z,7.58
2019-03-05T02:16:06.552Z,7.00
2019-03-05T02:18:34.993Z,6.20
2019-03-05T02:21:03.419Z,6.87
2019-03-05T02:23:53.229Z,6.53
2019-03-05T02:26:41.501Z,4.58
2019-03-05T02:29:43.861Z,5.70
2019-03-05T02:32:26.982Z,4.97
2019-03-05T02:35:13.569Z,5.00
2019-03-05T02:38:05.949Z,4.60
2019-03-05T02:40:37.591Z,5.00
2019-03-05T02:43:18.185Z,4.67
2019-03-05T02:45:52.458Z,4.80
2019-03-05T02:48:43.504Z,4.90
2019-03-05T02:51:29.543Z,5.25
2019-03-05T02:54:09.833Z,5.00
2019-03-05T02:56:47.450Z,4.80
2019-03-05T02:59:14.805Z,5.62
2019-03-05T03:01:48.114Z,5.80
2019-03-05T03:04:21.162Z,4.80
2019-03-05T03:06:49.592Z,5.60
2019-03-05T03:09:33.169Z,5.95
2019-03-05T03:12:01.658Z,6.20
2019-03-05T03:14:30.102Z,5.58
2019-03-05T03:16:58.534Z,5.75
2019-03-05T03:19:26.958Z,5.40
2019-03-05T03:21:55.379Z,5.47
2019-03-05T03:24:23.798Z,5.65
2019-03-05T03:26:52.225Z,5.40
2019-03-05T03:29:20.661Z,4.90
2019-03-05T03:31:49.089Z,5.20
2019-03-05T03:34:17.530Z,5.10
2019-03-05T03:36:46.053Z,5.30
2019-03-05T03:39:14.779Z,5.70
2019-03-05T03:41:43.204Z,5.13
2019-03-05T03:44:11.626Z,5.03
2019-03-05T03:46:40.056Z,5.42
2019-03-05T03:49:08.569Z,6.37
2019-03-05T03:51:36.993Z,5.62
2019-03-05T03:54:05.490Z,5.90
2019-03-05T03:56:34.236Z,6.30
2019-03-05T03:59:02.737Z,6.83
2019-03-05T04:01:31.227Z,6.20
2019-03-05T04:03:59.649Z,6.20
2019-03-05T04:06:28.083Z,6.12
2019-03-05T04:08:56.573Z,6.15
2019-03-05T04:11:25.001Z,5.30
2019-03-05T04:13:53.546Z,5.60
2019-03-05T04:16:21.969Z,5.40
2019-03-05T04:18:50.413Z,5.08
2019-03-05T04:21:20.142Z,4.90
2019-03-05T04:23:48.801Z,4.70
2019-03-05T04:26:17.218Z,4.40
2019-03-05T04:28:45.661Z,4.30
2019-03-05T04:31:14.139Z,3.97
2019-03-05T04:33:42.563Z,4.10
2019-03-05T04:36:10.980Z,4.30
2019-03-05T04:38:39.408Z,3.92
2019-03-05T04:41:07.836Z,4.50
2019-03-05T04:43:36.256Z,4.17
2019-03-05T04:46:06.317Z,4.20
2019-03-05T04:48:34.740Z,4.67
2019-03-05T04:51:04.837Z,4.10
2019-03-05T04:53:33.261Z,4.50
2019-03-05T04:56:01.717Z,4.60
2019-03-05T04:58:30.137Z,4.50
2019-03-05T05:00:58.574Z,4.67
2019-03-05T05:03:27.005Z,5.00
2019-03-05T05:05:55.697Z,4.65
2019-03-05T05:08:24.129Z,4.70
2019-03-05T05:10:52.543Z,5.03
2019-03-05T05:13:20.981Z,4.90
2019-03-05T05:15:49.396Z,4.87
2019-03-05T05:18:17.825Z,5.42
2019-03-05T05:20:46.251Z,4.80
2019-03-05T05:23:14.689Z,4.30
2019-03-05T05:25:43.164Z,4.70
2019-03-05T05:28:17.175Z,5.50
2019-03-05T05:30:45.604Z,4.90
2019-03-05T05:33:14.031Z,4.72
2019-03-05T05:35:42.481Z,4.97
2019-03-05T05:38:10.969Z,4.50
2019-03-05T05:40:44.413Z,4.60
2019-03-05T05:43:15.380Z,4.65
2019-03-05T05:45:49.313Z,4.60
2019-03-05T05:48:17.869Z,4.78
2019-03-05T05:50:46.293Z,4.70
2019-03-05T05:53:14.734Z,4.55
2019-03-05T05:55:43.161Z,4.20
2019-03-05T05:58:11.582Z,4.90
2019-03-05T06:00:44.225Z,4.70
2019-03-05T06:03:12.675Z,4.60
2019-03-05T06:05:41.730Z,4.73
2019-03-05T06:08:10.193Z,4.60
2019-03-05T06:10:38.620Z,5.15
2019-03-05T06:13:07.161Z,5.25
2019-03-05T06:15:35.597Z,4.87
2019-03-05T06:18:04.033Z,4.75
2019-03-05T06:20:32.460Z,5.10
2019-03-05T06:23:01.010Z,5.03
2019-03-05T06:25:29.509Z,5.10
2019-03-05T06:27:57.945Z,4.67
2019-03-05T06:30:32.445Z,5.30
2019-03-05T06:33:00.861Z,4.65
2019-03-05T06:35:29.453Z,4.60
2019-03-05T06:37:57.889Z,4.65
2019-03-05T06:40:31.052Z,4.92
2019-03-05T06:42:59.469Z,4.92
2019-03-05T06:45:27.997Z,4.65
2019-03-05T06:47:56.414Z,5.05
2019-03-05T06:50:26.098Z,4.70
2019-03-05T06:52:54.578Z,4.80
2019-03-05T06:55:23.006Z,5.10
2019-03-05T06:57:51.437Z,5.12
2019-03-05T07:00:34.892Z,4.20
2019-03-05T07:03:04.627Z,4.80
2019-03-05T07:05:52.667Z,4.40
2019-03-05T07:08:21.101Z,4.47
2019-03-05T07:11:01.648Z,5.00
2019-03-05T07:13:31.513Z,5.10
2019-03-05T07:16:08.585Z,5.20
2019-03-05T07:18:40.293Z,4.80
2019-03-05T07:21:45.251Z,4.40
2019-03-05T07:24:28.729Z,4.90
2019-03-05T07:26:57.171Z,4.72
2019-03-05T07:29:25.618Z,4.30
2019-03-05T07:31:54.097Z,4.87
2019-03-05T07:34:24.164Z,5.22
2019-03-05T07:36:52.607Z,5.00
2019-03-05T07:39:23.245Z,5.37
2019-03-05T07:41:51.668Z,4.83
2019-03-05T07:44:20.145Z,5.78
2019-03-05T07:46:48.593Z,4.85
2019-03-05T07:49:17.021Z,4.92
2019-03-05T07:51:45.809Z,5.35
2019-03-05T07:54:14.269Z,5.15
2019-03-05T07:56:42.689Z,4.90
2019-03-05T07:59:11.125Z,5.05
2019-03-05T08:01:39.557Z,4.87
2019-03-05T08:04:08.006Z,4.87
2019-03-05T08:06:36.692Z,4.33
2019-03-05T08:09:35.996Z,4.80
2019-03-05T08:12:25.599Z,4.37
2019-03-05T08:15:21.534Z,4.83
2019-03-05T08:17:49.951Z,4.83
2019-03-05T08:20:18.667Z,4.90
2019-03-05T08:22:47.170Z,4.75
2019-03-05T08:25:15.633Z,4.10
2019-03-05T08:27:44.061Z,4.78
2019-03-05T08:30:15.512Z,4.10
2019-03-05T08:32:44.008Z,4.47
2019-03-05T08:35:12.597Z,4.40
2019-03-05T08:37:41.022Z,4.28
2019-03-05T08:40:12.395Z,4.30
2019-03-05T08:42:40.820Z,4.10
2019-03-05T08:45:14.338Z,3.92
2019-03-05T08:47:43.020Z,4.53
2019-03-05T08:50:15.341Z,3.90
2019-03-05T08:52:43.756Z,4.00
2019-03-05T08:55:12.849Z,3.85
2019-03-05T08:57:41.271Z,4.20
2019-03-05T09:00:18.319Z,3.98
2019-03-05T09:02:48.995Z,4.20
2019-03-05T09:05:19.025Z,4.00
2019-03-05T09:07:47.696Z,4.17
2019-03-05T09:10:27.571Z,3.90
2019-03-05T09:12:56.273Z,4.30
2019-03-05T09:15:24.754Z,3.90
2019-03-05T09:17:53.204Z,3.77
2019-03-05T09:20:21.703Z,3.40
2019-03-05T09:22:50.121Z,4.10
2019-03-05T09:25:19.192Z,4.05
2019-03-05T09:27:47.629Z,4.00
2019-03-05T09:30:23.926Z,3.77
2019-03-05T09:32:52.336Z,3.92
2019-03-05T09:35:20.774Z,4.60
2019-03-05T09:37:49.202Z,4.40
2019-03-05T09:40:28.774Z,4.45
2019-03-05T09:42:57.361Z,4.22
2019-03-05T09:45:28.193Z,4.53
2019-03-05T09:47:56.490Z,4.25
2019-03-05T09:50:26.248Z,5.17
2019-03-05T09:52:55.448Z,4.72
2019-03-05T09:55:26.213Z,5.00
2019-03-05T09:58:06.940Z,4.37
2019-03-05T10:00:27.613Z,5.20
2019-03-05T10:02:56.103Z,5.10
2019-03-05T10:05:24.565Z,5.00
2019-03-05T10:07:52.986Z,4.83
2019-03-05T10:10:29.105Z,5.45
2019-03-05T10:12:59.097Z,5.60
2019-03-05T10:15:29.256Z,6.00
2019-03-05T10:17:57.694Z,6.05
2019-03-05T10:20:28.415Z,6.15
2019-03-05T10:22:58.045Z,5.22
2019-03-05T10:25:27.405Z,5.30
2019-03-05T10:27:56.949Z,4.60
2019-03-05T10:30:29.540Z,5.08
2019-03-05T10:33:00.855Z,4.40
2019-03-05T10:35:29.349Z,4.83
2019-03-05T10:38:00.661Z,4.30
2019-03-05T10:40:46.573Z,4.90
2019-03-05T10:43:16.137Z,5.05
2019-03-05T10:45:47.277Z,4.70
2019-03-05T10:48:18.814Z,4.50
2019-03-05T10:50:48.212Z,4.15
2019-03-05T10:53:16.637Z,3.50
2019-03-05T10:55:45.076Z,3.50
2019-03-05T10:58:15.521Z,3.52
2019-03-05T11:00:51.673Z,3.87
2019-03-05T11:03:23.239Z,4.20
2019-03-05T11:05:52.409Z,4.30
2019-03-05T11:08:23.537Z,4.50
2019-03-05T11:10:53.089Z,4.65
2019-03-05T11:13:21.505Z,4.90
2019-03-05T11:15:53.022Z,4.97
2019-03-05T11:18:28.912Z,4.67
2019-03-05T11:20:51.602Z,4.28
2019-03-05T11:23:20.031Z,4.20
2019-03-05T11:25:48.452Z,3.60
2019-03-05T11:28:16.958Z,3.60
2019-03-05T11:30:45.447Z,4.10
2019-03-05T11:33:14.224Z,3.40
2019-03-05T11:35:42.632Z,3.40
2019-03-05T11:38:11.138Z,3.30
2019-03-05T11:40:39.701Z,3.10
2019-03-05T11:43:10.273Z,3.02
2019-03-05T11:45:40.296Z,2.30
2019-03-05T11:48:08.793Z,2.77
2019-03-05T11:50:37.334Z,2.70
2019-03-05T11:53:06.138Z,2.30
2019-03-05T11:55:34.556Z,2.40
2019-03-05T11:58:02.980Z,2.90
2019-03-05T12:00:47.057Z,2.80
2019-03-05T12:03:15.605Z,3.00
2019-03-05T12:05:44.023Z,2.50
2019-03-05T12:08:12.502Z,2.75
2019-03-05T12:10:40.982Z,2.30
2019-03-05T12:13:09.423Z,2.60
2019-03-05T12:15:42.461Z,2.30
2019-03-05T12:18:10.896Z,2.40
2019-03-05T12:20:39.330Z,2.50
2019-03-05T12:23:10.347Z,2.52
2019-03-05T12:25:39.855Z,2.00
2019-03-05T12:28:10.670Z,1.90
2019-03-05T12:30:38.548Z,2.20
2019-03-05T12:33:07.005Z,2.00
2019-03-05T12:35:35.702Z,1.90
2019-03-05T12:38:04.846Z,1.90
2019-03-05T12:40:33.296Z,2.10
2019-03-05T12:43:01.774Z,1.80
2019-03-05T12:45:30.205Z,1.80
2019-03-05T12:47:58.649Z,1.50
2019-03-05T12:50:29.972Z,1.52
2019-03-05T12:52:58.638Z,1.60
2019-03-05T12:55:27.060Z,1.60
2019-03-05T12:57:55.483Z,1.85
2019-03-05T13:00:28.594Z,1.30
2019-03-05T13:02:57.179Z,1.20
2019-03-05T13:05:25.764Z,1.40
2019-03-05T13:07:56.633Z,1.60
2019-03-05T13:10:35.278Z,1.60
2019-03-05T13:12:59.404Z,2.00
2019-03-05T13:15:35.321Z,2.00
2019-03-05T13:18:03.739Z,1.90
2019-03-05T13:20:32.175Z,1.90
2019-03-05T13:23:00.884Z,2.20
2019-03-05T13:25:29.966Z,2.62
2019-03-05T13:28:02.237Z,2.42
2019-03-05T13:30:32.565Z,2.02
2019-03-05T13:33:01.105Z,2.20
2019-03-05T13:35:31.733Z,2.12
2019-03-05T13:38:12.721Z,2.30
2019-03-05T13:40:41.164Z,2.50
2019-03-05T13:43:09.652Z,2.20
2019-03-05T13:45:38.157Z,2.10
2019-03-05T13:48:29.622Z,2.00
2019-03-05T13:51:13.150Z,2.30
2019-03-05T13:54:10.812Z,2.30
2019-03-05T13:57:15.353Z,2.37
2019-03-05T13:59:50.173Z,1.87
2019-03-05T14:02:21.241Z,2.30
2019-03-05T14:05:10.938Z,2.40
2019-03-05T14:08:04.675Z,2.80
2019-03-05T14:10:33.106Z,2.67
2019-03-05T14:13:02.006Z,2.50
2019-03-05T14:15:30.695Z,3.10
2019-03-05T14:17:59.179Z,2.70
2019-03-05T14:20:31.728Z,2.90
2019-03-05T14:22:57.828Z,3.20
2019-03-05T14:25:26.294Z,3.33
2019-03-05T14:27:54.769Z,3.10
2019-03-05T14:30:23.182Z,3.90
2019-03-05T14:32:51.629Z,4.00
2019-03-05T14:35:21.252Z,3.33
2019-03-05T14:37:49.750Z,3.60
2019-03-05T14:40:24.541Z,3.55
2019-03-05T14:42:51.294Z,3.58
2019-03-05T14:45:24.467Z,3.40
2019-03-05T14:47:54.268Z,3.50
2019-03-05T14:50:22.772Z,3.67
2019-03-05T14:52:52.824Z,3.07
2019-03-05T14:55:21.358Z,3.20
2019-03-05T14:57:49.898Z,3.35
2019-03-05T15:00:22.832Z,3.50
2019-03-05T15:02:51.357Z,3.20
2019-03-05T15:05:19.845Z,3.15
2019-03-05T15:07:48.314Z,3.15
2019-03-05T15:10:16.828Z,3.37
2019-03-05T15:12:45.323Z,3.20
2019-03-05T15:15:22.726Z,3.58
2019-03-05T15:17:51.285Z,3.55
2019-03-05T15:20:19.806Z,3.80
2019-03-05T15:22:48.353Z,3.65
2019-03-05T15:25:17.254Z,4.28
2019-03-05T15:27:46.123Z,3.67
2019-03-05T15:30:20.106Z,3.70
2019-03-05T15:32:48.650Z,3.98
2019-03-05T15:35:18.635Z,4.22
2019-03-05T15:37:47.324Z,3.50
2019-03-05T15:40:16.933Z,3.60
2019-03-05T15:42:45.511Z,3.33
2019-03-05T15:45:16.177Z,3.60
2019-03-05T15:47:44.668Z,3.58
2019-03-05T15:50:18.181Z,2.97
2019-03-05T15:52:46.661Z,3.20
2019-03-05T15:55:16.317Z,3.12
2019-03-05T15:57:44.741Z,2.90
2019-03-05T16:00:22.983Z,2.60
2019-03-05T16:02:51.531Z,2.27
2019-03-05T16:05:20.876Z,2.83
2019-03-05T16:07:49.668Z,2.67
2019-03-05T16:10:18.825Z,2.50
2019-03-05T16:12:47.515Z,2.50
2019-03-05T16:15:18.589Z,2.72
2019-03-05T16:17:46.768Z,2.42
2019-03-05T16:20:20.440Z,3.00
2019-03-05T16:22:51.220Z,2.42
2019-03-05T16:25:22.204Z,3.00
2019-03-05T16:27:51.071Z,2.60
2019-03-05T16:30:45.146Z,2.58
2019-03-05T16:33:32.508Z,2.60
2019-03-05T16:36:08.112Z,2.80
2019-03-05T16:38:56.546Z,2.35
2019-03-05T16:41:29.289Z,2.40
2019-03-05T16:44:02.436Z,2.70
2019-03-05T16:46:48.983Z,3.20
2019-03-05T16:49:34.359Z,2.40
2019-03-05T16:52:07.334Z,2.60
2019-03-05T16:54:37.785Z,2.50
2019-03-05T16:57:08.577Z,2.50
2019-03-05T16:59:47.950Z,2.77
2019-03-05T17:02:30.103Z,2.20
2019-03-05T17:05:10.346Z,2.50
2019-03-05T17:07:40.465Z,2.60
2019-03-05T17:10:15.835Z,2.83
2019-03-05T17:12:44.324Z,3.00
2019-03-05T17:15:12.749Z,3.10
2019-03-05T17:17:41.198Z,2.83
2019-03-05T17:20:11.315Z,2.80
2019-03-05T17:22:39.811Z,2.70
2019-03-05T17:25:11.737Z,3.33
2019-03-05T17:27:40.450Z,2.95
2019-03-05T17:30:14.045Z,2.90
2019-03-05T17:32:42.535Z,4.35
2019-03-05T17:35:12.029Z,2.80
2019-03-05T17:37:40.513Z,3.12
2019-03-05T17:40:11.677Z,3.40
2019-03-05T17:42:40.385Z,3.30
2019-03-05T17:45:23.386Z,3.10
2019-03-05T17:47:52.290Z,3.12
2019-03-05T17:50:22.636Z,2.60
2019-03-05T17:52:51.131Z,3.35
2019-03-05T17:55:27.144Z,3.50
2019-03-05T17:57:55.352Z,3.50
2019-03-05T18:00:29.075Z,3.20
2019-03-05T18:02:57.637Z,3.45
2019-03-05T18:05:26.129Z,3.42
2019-03-05T18:07:54.657Z,4.17
2019-03-05T18:10:23.465Z,3.80
2019-03-05T18:12:51.921Z,4.85
2019-03-05T18:15:20.337Z,3.85
2019-03-05T18:17:48.807Z,3.90
2019-03-05T18:20:22.034Z,4.00
2019-03-05T18:22:50.535Z,3.95
2019-03-05T18:25:20.609Z,4.00
2019-03-05T18:27:49.037Z,4.37
2019-03-05T18:30:25.363Z,5.00
2019-03-05T18:32:54.156Z,5.20
2019-03-05T18:35:23.009Z,5.00
2019-03-05T18:37:55.226Z,4.50
2019-03-05T18:40:24.676Z,5.70
2019-03-05T18:42:53.609Z,6.20
2019-03-05T18:45:33.984Z,6.35
2019-03-05T18:48:02.499Z,6.40
2019-03-05T18:50:30.996Z,6.33
2019-03-05T18:53:01.298Z,6.23
2019-03-05T18:55:29.895Z,5.70
2019-03-05T18:57:58.329Z,5.60
2019-03-05T19:00:28.507Z,6.33
2019-03-05T19:02:59.409Z,5.85
2019-03-05T19:05:27.833Z,6.78
2019-03-05T19:07:56.273Z,5.60
2019-03-05T19:10:25.497Z,5.20
2019-03-05T19:12:54.209Z,5.05
2019-03-05T19:15:30.001Z,5.30
2019-03-05T19:17:58.440Z,5.22
2019-03-05T19:20:30.635Z,6.55
2019-03-05T19:22:59.977Z,5.97
2019-03-05T19:25:36.493Z,5.30
2019-03-05T19:28:05.330Z,5.00
2019-03-05T19:30:36.421Z,5.05
2019-03-05T19:33:05.065Z,4.83
2019-03-05T19:35:33.523Z,4.90
2019-03-05T19:38:01.993Z,4.43
2019-03-05T19:40:43.671Z,5.22
2019-03-05T19:43:12.092Z,5.20
2019-03-05T19:45:40.921Z,6.17
2019-03-05T19:48:09.347Z,5.87
2019-03-05T19:50:37.756Z,4.50
2019-03-05T19:53:06.474Z,5.20
2019-03-05T19:55:34.881Z,4.60
2019-03-05T19:58:10.036Z,5.50
2019-03-05T20:00:45.809Z,5.20
2019-03-05T20:03:14.233Z,5.53
2019-03-05T20:05:42.654Z,4.78
2019-03-05T20:08:11.134Z,6.40
2019-03-05T20:10:39.564Z,6.20
2019-03-05T20:13:08.063Z,4.90
2019-03-05T20:15:36.489Z,5.05
2019-03-05T20:18:07.118Z,5.40
2019-03-05T20:20:35.142Z,4.97
2019-03-05T20:23:03.573Z,5.10
2019-03-05T20:25:32.509Z,5.33
2019-03-05T20:28:00.942Z,5.10
2019-03-05T20:30:29.525Z,6.45
2019-03-05T20:32:57.958Z,5.40
2019-03-05T20:35:26.689Z,5.30
2019-03-05T20:37:55.125Z,5.47
2019-03-05T20:40:25.962Z,4.90
2019-03-05T20:42:54.389Z,5.10
2019-03-05T20:45:31.912Z,5.30
2019-03-05T20:48:00.366Z,6.22
2019-03-05T20:50:28.896Z,8.93
2019-03-05T20:52:57.338Z,11.85
2019-03-05T20:55:27.101Z,18.07
2019-03-05T20:57:55.537Z,6.60
2019-03-05T21:00:34.564Z,6.20
2019-03-05T21:03:05.505Z,5.80
2019-03-05T21:05:36.541Z,6.45
2019-03-05T21:08:05.533Z,5.55
2019-03-05T21:10:34.017Z,5.10
2019-03-05T21:13:02.871Z,5.40
2019-03-05T21:15:33.023Z,5.50
2019-03-05T21:18:02.458Z,5.17
2019-03-05T21:20:31.003Z,5.90
2019-03-05T21:22:59.455Z,5.12
2019-03-05T21:25:27.989Z,5.92
2019-03-05T21:27:56.784Z,6.10
2019-03-05T21:30:26.649Z,5.40
2019-03-05T21:32:55.216Z,6.12
2019-03-05T21:35:23.721Z,5.30
2019-03-05T21:37:52.814Z,5.70
2019-03-05T21:40:24.321Z,6.10
2019-03-05T21:42:53.201Z,5.80
2019-03-05T21:45:45.710Z,6.40
2019-03-05T21:48:14.388Z,6.87
2019-03-05T21:50:42.896Z,6.70
2019-03-05T21:53:11.441Z,6.37
2019-03-05T21:55:39.869Z,6.03
2019-03-05T21:58:08.473Z,5.62
2019-03-05T22:00:41.827Z,6.50
2019-03-05T22:03:10.272Z,7.72
2019-03-05T22:05:38.784Z,6.70
2019-03-05T22:08:07.229Z,7.10
2019-03-05T22:10:36.179Z,5.80
2019-03-05T22:13:04.680Z,5.17
2019-03-05T22:15:36.601Z,5.83
2019-03-05T22:18:05.098Z,6.10
2019-03-05T22:20:33.536Z,6.40
2019-03-05T22:23:01.970Z,6.37
2019-03-05T22:25:30.412Z,5.58
2019-03-05T22:27:58.924Z,5.45
2019-03-05T22:30:29.096Z,6.10
2019-03-05T22:32:57.524Z,7.92
2019-03-05T22:35:26.037Z,6.08
2019-03-05T22:37:54.476Z,6.78
2019-03-05T22:40:26.749Z,6.17
2019-03-05T22:42:55.568Z,7.30
2019-03-05T22:45:28.024Z,8.20
2019-03-05T22:47:56.500Z,7.08
2019-03-05T22:50:25.110Z,7.70
2019-03-05T22:52:53.590Z,9.15
2019-03-05T22:55:22.087Z,8.30
2019-03-05T22:57:50.626Z,9.03
2019-03-05T23:00:32.573Z,8.45
2019-03-05T23:03:01.765Z,8.63
2019-03-05T23:05:30.482Z,8.08
2019-03-05T23:07:59.021Z,8.50
2019-03-05T23:10:27.528Z,8.83
2019-03-05T23:12:56.032Z,8.73
2019-03-05T23:15:24.448Z,8.65
2019-03-05T23:17:52.938Z,9.20
2019-03-05T23:20:21.569Z,9.20
2019-03-05T23:22:50.088Z,8.13
2019-03-05T23:25:20.528Z,9.70
2019-03-05T23:27:48.974Z,9.25
2019-03-05T23:30:21.588Z,8.95
2019-03-05T23:32:54.235Z,9.10
2019-03-05T23:35:22.804Z,9.70
2019-03-05T23:37:51.288Z,9.13
2019-03-05T23:40:19.947Z,10.50
2019-03-05T23:42:51.220Z,10.20
2019-03-05T23:45:20.389Z,11.05
2019-03-05T23:47:48.883Z,11.30
2019-03-05T23:50:18.014Z,11.15
2019-03-05T23:52:46.581Z,11.70
2019-03-05T23:55:15.441Z,12.50
2019-03-05T23:57:44.297Z,11.70
